Rechercher aéroport 
image banner adimage banner adimage banner ad
image banner ad

53CL - Lofty Redwoods

Situé à Anchor Bay, United States

ICAO - 53CL, IATA -

Données fournies par Airmate  

Information générale

Coordonnées: N38°51'35" W123°35'26"
Élévation : 1317 feet MSL.
Variation magnétique : 17° East
Voir autres Aéroports à California

Données opérationnelles

Special qualification required
Heure actuelle UTC:
Heure actuelle locale:
Météo à : KUKI - Ukiah Muni ( 45 km )
METAR: KUKI 270356Z AUTO 16006KT 10SM CLR 23/09 A2992 RMK AO2 SLP124 T02280089
TAF: KUKI 262347Z 2700/2724 16012G22KT P6SM SCT250 FM270500 VRB05KT P6SM BKN250 FM271300 15003KT P6SM OVC250
Voir NOTAMs / SUP AIP / TFR affectant cet aéroport [VIEW]
Fréquences de communication: [VIEW]

Pistes:

Identifiant RWYQFULongueur (ft)Largeur (ft)SurfaceLDA (ft)
13320060OTHER
31320060OTHER

Coordonnées de l'aéroport

Adresse: Anchor Bay United States

Vue satellite de 53CL